Saint Anthony, North Dakota
Current Conditions -  °F | °C
As of 9:15 AM on Wednesday 22 Oct 2014 (Local Time) from KY19 Reporting Station
Overcast Overcast  
Wind Chill: 55°   Ceiling: 9000
Heat Index: 55°   Visibility: 10mi
Dew Point: 45°   Wind: 17mph
Humidity: 67%   Direction: 290°WNW
Pressure: 29.86"   Gusts: 22mph
Location:  46.62°N, 100.91°W
Report Text: KY19 221515Z AUTO 29015G19KT 10SM OVC090 13/07 A2986 RMK AO2
Loading
Personal Weather Stations






























Interactive Weather Map
Tropical Storm Tracking
New forecast layout! Learn more

10-Day Weather Forecast

Advertisements
Track Severe Weather on mobile